Time;durP1;ratioP1;P1;durP2;ratioP2;P2;SDS_P1;SDS_P2;PMS_P1;PMS_P2;Temp;Humidity;BMP_temperature;BMP_pressure;BME280_temperature;BME280_humidity;BME280_pressure;Samples;Min_cycle;Max_cycle;Signal;HPM_P1;HPM_P2
2023/01/19 00:01:24;;;;;;;1.20;0.80;;;;;;;;;;4934474;28;20102;-75
2023/01/19 00:03:50;;;;;;;1.55;0.70;;;;;;;;;;4935942;28;20052;-73
2023/01/19 00:06:17;;;;;;;0.70;0.50;;;;;;;;;;4938709;28;20414;-74
2023/01/19 00:08:44;;;;;;;1.65;0.90;;;;;;;;;;4934808;28;20054;-73
2023/01/19 00:11:11;;;;;;;1.50;1.00;;;;;;;;;;4932720;28;20063;-75
2023/01/19 00:13:38;;;;;;;1.35;0.80;;;;;;;;;;4936272;28;20059;-73
2023/01/19 00:16:06;;;;;;;0.95;0.90;;;;;;;;;;4934817;28;20059;-74
2023/01/19 00:18:32;;;;;;;1.77;0.85;;;;;;;;;;4935772;28;20553;-73
2023/01/19 00:20:58;;;;;;;1.40;0.85;;;;;;;;;;4934608;28;21305;-73
2023/01/19 00:23:24;;;;;;;1.15;0.85;;;;;;;;;;4936940;28;20145;-72
2023/01/19 00:25:50;;;;;;;1.75;0.73;;;;;;;;;;4935718;28;20047;-73
2023/01/19 00:28:18;;;;;;;2.20;1.45;;;;;;;;;;4935437;28;20048;-73
2023/01/19 00:30:44;;;;;;;1.25;0.70;;;;;;;;;;4934369;28;20043;-73
2023/01/19 00:33:14;;;;;;;1.15;0.60;;;;;;;;;;4932887;28;20063;-74
2023/01/19 00:35:41;;;;;;;1.50;0.60;;;;;;;;;;4933194;28;20050;-73
2023/01/19 00:38:08;;;;;;;0.63;0.60;;;;;;;;;;4942690;28;20101;-73
2023/01/19 00:40:34;;;;;;;0.82;0.50;;;;;;;;;;4940857;28;20043;-73
2023/01/19 00:43:00;;;;;;;3.70;0.63;;;;;;;;;;4939204;28;20062;-74
2023/01/19 00:45:26;;;;;;;2.25;0.47;;;;;;;;;;4936456;28;20970;-74
2023/01/19 00:47:55;;;;;;;0.98;0.70;;;;;;;;;;4939400;28;20063;-74
2023/01/19 00:50:22;;;;;;;1.65;0.70;;;;;;;;;;4939725;28;20515;-72
2023/01/19 00:52:49;;;;;;;1.50;0.80;;;;;;;;;;4944176;28;20489;-74
2023/01/19 00:55:15;;;;;;;2.10;1.00;;;;;;;;;;4938749;28;20065;-74
2023/01/19 00:57:41;;;;;;;1.23;0.65;;;;;;;;;;4944966;28;20051;-74
2023/01/19 01:00:14;;;;;;;1.45;0.90;;;;;;;;;;4939585;28;20048;-74
2023/01/19 01:02:41;;;;;;;0.85;0.60;;;;;;;;;;4938340;28;20062;-73
2023/01/19 01:05:08;;;;;;;1.27;0.57;;;;;;;;;;4936884;28;20183;-73
2023/01/19 01:07:44;;;;;;;1.17;0.60;;;;;;;;;;4936712;28;20059;-73
2023/01/19 01:10:13;;;;;;;1.58;0.60;;;;;;;;;;4937258;28;20039;-74
2023/01/19 01:12:40;;;;;;;0.85;0.60;;;;;;;;;;4939044;28;20051;-72
2023/01/19 01:15:08;;;;;;;0.88;0.68;;;;;;;;;;4936204;28;20086;-72
2023/01/19 01:17:34;;;;;;;1.33;0.68;;;;;;;;;;4938952;28;20185;-74
2023/01/19 01:19:59;;;;;;;1.30;0.70;;;;;;;;;;4940971;28;20043;-72
2023/01/19 01:22:26;;;;;;;1.02;0.50;;;;;;;;;;4936308;28;20066;-73
2023/01/19 01:24:52;;;;;;;0.47;0.45;;;;;;;;;;4935231;28;20413;-73
2023/01/19 01:27:18;;;;;;;0.73;0.50;;;;;;;;;;4936870;28;20051;-75
2023/01/19 01:29:46;;;;;;;1.00;0.50;;;;;;;;;;4937036;28;20465;-76
2023/01/19 01:32:13;;;;;;;0.50;0.50;;;;;;;;;;4934122;28;20062;-75
2023/01/19 01:34:39;;;;;;;0.80;0.60;;;;;;;;;;4936833;28;20070;-73
2023/01/19 01:37:07;;;;;;;0.85;0.60;;;;;;;;;;4937259;28;20047;-72
2023/01/19 01:39:36;;;;;;;0.93;0.70;;;;;;;;;;4937276;28;20050;-74
2023/01/19 01:42:13;;;;;;;0.75;0.50;;;;;;;;;;4938028;28;20054;-74
2023/01/19 01:45:00;;;;;;;0.80;0.55;;;;;;;;;;4940264;28;20134;-72
2023/01/19 01:47:47;;;;;;;0.95;0.73;;;;;;;;;;4935168;28;20047;-72
2023/01/19 01:50:34;;;;;;;1.25;0.60;;;;;;;;;;4934437;28;20058;-74
2023/01/19 01:53:28;;;;;;;1.92;0.50;;;;;;;;;;4936026;28;20535;-75
2023/01/19 01:55:54;;;;;;;3.05;0.60;;;;;;;;;;4937462;28;20040;-75
2023/01/19 01:58:21;;;;;;;0.77;0.68;;;;;;;;;;4933339;28;20760;-73
2023/01/19 02:03:32;;;;;;;1.70;0.70;;;;;;;;;;4932910;28;20051;-71
2023/01/19 02:06:00;;;;;;;2.08;0.73;;;;;;;;;;4932996;28;20469;-73
2023/01/19 02:14:09;;;;;;;0.82;0.55;;;;;;;;;;4936144;28;20548;-73
2023/01/19 02:16:36;;;;;;;1.10;0.70;;;;;;;;;;4933066;28;20054;-74
2023/01/19 02:19:06;;;;;;;1.30;0.50;;;;;;;;;;4935097;28;20209;-72
2023/01/19 02:21:50;;;;;;;0.77;0.50;;;;;;;;;;4933517;28;20054;-73
2023/01/19 02:24:16;;;;;;;0.55;0.43;;;;;;;;;;4938583;28;20047;-72
2023/01/19 02:26:46;;;;;;;0.88;0.40;;;;;;;;;;4939269;28;20071;-71
2023/01/19 02:29:16;;;;;;;0.85;0.30;;;;;;;;;;4933011;28;20051;-71
2023/01/19 02:31:44;;;;;;;0.40;0.30;;;;;;;;;;4935734;28;20552;-71
2023/01/19 02:34:14;;;;;;;0.40;0.40;;;;;;;;;;4943820;28;20113;-71
2023/01/19 02:36:53;;;;;;;1.30;0.60;;;;;;;;;;4935168;28;20121;-72
2023/01/19 02:39:25;;;;;;;0.45;0.40;;;;;;;;;;4932961;28;20856;-72
2023/01/19 02:41:58;;;;;;;0.60;0.30;;;;;;;;;;4938352;28;20051;-75
2023/01/19 02:44:26;;;;;;;0.40;0.40;;;;;;;;;;4936374;29;20063;-75
2023/01/19 02:46:53;;;;;;;0.32;0.28;;;;;;;;;;4932154;28;20047;-74
2023/01/19 02:49:19;;;;;;;1.90;0.30;;;;;;;;;;4936468;28;20509;-75
2023/01/19 02:51:45;;;;;;;0.80;0.40;;;;;;;;;;4935645;28;20054;-76
2023/01/19 02:54:17;;;;;;;0.40;0.40;;;;;;;;;;4933705;28;20059;-73
2023/01/19 02:56:53;;;;;;;0.60;0.40;;;;;;;;;;4934301;28;20055;-72
2023/01/19 02:59:22;;;;;;;1.08;0.35;;;;;;;;;;4935332;28;20047;-72
2023/01/19 03:02:29;;;;;;;2.17;0.40;;;;;;;;;;4938766;28;20065;-72
2023/01/19 03:05:16;;;;;;;0.30;0.30;;;;;;;;;;4912209;29;20457;-73
2023/01/19 03:07:49;;;;;;;0.25;0.25;;;;;;;;;;4910658;29;20052;-73
2023/01/19 03:10:24;;;;;;;2.30;0.43;;;;;;;;;;4920158;29;20139;-72
2023/01/19 03:13:13;;;;;;;;;;;;;;;;;;4918253;29;20130;-71
2023/01/19 03:15:46;;;;;;;0.38;0.38;;;;;;;;;;4861752;29;20592;-72
2023/01/19 03:18:15;;;;;;;1.38;0.30;;;;;;;;;;4859939;29;20057;-72
2023/01/19 03:20:43;;;;;;;0.95;0.30;;;;;;;;;;4862388;29;20057;-72
2023/01/19 03:23:11;;;;;;;0.40;0.38;;;;;;;;;;4861148;29;20049;-72
2023/01/19 03:25:41;;;;;;;1.00;0.32;;;;;;;;;;4862083;29;20053;-71
2023/01/19 03:28:07;;;;;;;0.35;0.30;;;;;;;;;;4857365;29;20049;-73
2023/01/19 03:30:41;;;;;;;0.40;0.40;;;;;;;;;;4863214;29;20128;-72
2023/01/19 03:33:22;;;;;;;1.15;0.70;;;;;;;;;;4857973;29;20053;-72
2023/01/19 03:35:52;;;;;;;1.02;0.38;;;;;;;;;;4868889;29;20056;-73
2023/01/19 03:38:23;;;;;;;0.65;0.40;;;;;;;;;;4880932;29;20076;-71
2023/01/19 03:40:54;;;;;;;0.70;0.50;;;;;;;;;;4884412;29;20060;-73
2023/01/19 03:43:22;;;;;;;2.70;0.47;;;;;;;;;;4880397;29;20044;-73
2023/01/19 03:45:49;;;;;;;0.30;0.30;;;;;;;;;;4880072;29;20135;-72
2023/01/19 03:48:16;;;;;;;0.65;0.30;;;;;;;;;;4880551;29;20132;-73
2023/01/19 03:50:42;;;;;;;0.63;0.38;;;;;;;;;;4882933;29;20048;-72
2023/01/19 03:53:11;;;;;;;2.95;0.55;;;;;;;;;;4924015;28;20060;-73
2023/01/19 03:55:40;;;;;;;6.45;0.50;;;;;;;;;;4936511;28;20509;-73
2023/01/19 03:58:06;;;;;;;0.45;0.45;;;;;;;;;;4937459;28;20390;-74
2023/01/19 04:00:33;;;;;;;0.47;0.47;;;;;;;;;;4937744;28;20054;-73
2023/01/19 04:02:59;;;;;;;0.20;0.20;;;;;;;;;;4933402;28;20469;-73
2023/01/19 04:05:25;;;;;;;0.82;0.38;;;;;;;;;;4933155;28;20054;-71
2023/01/19 04:07:51;;;;;;;0.30;0.30;;;;;;;;;;4941298;28;20043;-72
2023/01/19 04:10:18;;;;;;;0.30;0.30;;;;;;;;;;4934718;28;20051;-73
2023/01/19 04:12:44;;;;;;;1.42;0.43;;;;;;;;;;4941622;28;20480;-71
2023/01/19 04:15:11;;;;;;;0.60;0.60;;;;;;;;;;4944723;28;20102;-73
2023/01/19 04:17:38;;;;;;;0.40;0.40;;;;;;;;;;4938260;28;20150;-71
2023/01/19 04:20:05;;;;;;;1.27;0.60;;;;;;;;;;4937949;28;20418;-73
2023/01/19 04:22:31;;;;;;;0.73;0.50;;;;;;;;;;4940852;28;20114;-73
2023/01/19 04:24:57;;;;;;;0.60;0.40;;;;;;;;;;4938262;28;20044;-73
2023/01/19 04:27:23;;;;;;;0.50;0.40;;;;;;;;;;4941596;28;20078;-72
2023/01/19 04:29:49;;;;;;;0.57;0.30;;;;;;;;;;4942569;28;20465;-72
2023/01/19 04:32:15;;;;;;;1.08;0.50;;;;;;;;;;4939559;28;20750;-72
2023/01/19 04:34:41;;;;;;;1.55;0.50;;;;;;;;;;4944063;28;20451;-74
2023/01/19 04:37:09;;;;;;;0.85;0.47;;;;;;;;;;4944117;28;20093;-73
2023/01/19 04:39:35;;;;;;;0.73;0.50;;;;;;;;;;4940095;28;20055;-73
2023/01/19 04:42:01;;;;;;;0.80;0.50;;;;;;;;;;4941750;28;20536;-72
2023/01/19 04:44:27;;;;;;;0.50;0.45;;;;;;;;;;4942102;28;20056;-72
2023/01/19 04:46:53;;;;;;;0.40;0.40;;;;;;;;;;4936958;28;20165;-72
2023/01/19 04:49:20;;;;;;;0.63;0.63;;;;;;;;;;4939436;28;20051;-70
2023/01/19 04:51:46;;;;;;;5.75;0.75;;;;;;;;;;4935402;28;20047;-71
2023/01/19 04:54:12;;;;;;;0.60;0.40;;;;;;;;;;4943083;28;20051;-72
2023/01/19 04:56:39;;;;;;;0.40;0.40;;;;;;;;;;4940925;28;20106;-72
2023/01/19 04:59:06;;;;;;;0.57;0.40;;;;;;;;;;4943845;28;20062;-73
2023/01/19 05:01:31;;;;;;;0.50;0.50;;;;;;;;;;4944330;28;20056;-71
2023/01/19 05:03:58;;;;;;;0.52;0.52;;;;;;;;;;4947621;28;20062;-72
2023/01/19 05:06:24;;;;;;;2.25;0.50;;;;;;;;;;4938841;28;20077;-73
2023/01/19 05:08:50;;;;;;;2.05;0.40;;;;;;;;;;4936449;28;20047;-74
2023/01/19 05:11:16;;;;;;;1.52;0.60;;;;;;;;;;4939481;28;20052;-73
2023/01/19 05:13:42;;;;;;;1.40;0.55;;;;;;;;;;4939454;28;20445;-73
2023/01/19 05:16:08;;;;;;;1.08;0.40;;;;;;;;;;4952490;28;20054;-72
2023/01/19 05:18:35;;;;;;;0.40;0.40;;;;;;;;;;4934322;28;20051;-72
2023/01/19 05:21:02;;;;;;;0.35;0.30;;;;;;;;;;4936133;28;20457;-72
2023/01/19 05:23:30;;;;;;;1.00;0.47;;;;;;;;;;4936862;28;20113;-70
2023/01/19 05:25:56;;;;;;;0.75;0.47;;;;;;;;;;4944831;28;20091;-72
2023/01/19 05:28:22;;;;;;;0.93;0.68;;;;;;;;;;4941104;28;20516;-72
2023/01/19 05:30:50;;;;;;;2.63;0.50;;;;;;;;;;4943406;28;20047;-71
2023/01/19 05:33:17;;;;;;;0.40;0.40;;;;;;;;;;4934995;28;20067;-71
2023/01/19 05:35:42;;;;;;;2.28;0.40;;;;;;;;;;4938848;28;20102;-70
2023/01/19 05:38:08;;;;;;;1.13;0.32;;;;;;;;;;4937592;28;20066;-70
2023/01/19 05:40:34;;;;;;;1.27;0.52;;;;;;;;;;4943396;28;20047;-70
2023/01/19 05:43:03;;;;;;;0.40;0.30;;;;;;;;;;4944235;28;20077;-71
2023/01/19 05:45:29;;;;;;;0.28;0.28;;;;;;;;;;4943761;28;20046;-73
2023/01/19 05:47:55;;;;;;;2.05;0.50;;;;;;;;;;4937227;28;20126;-72
2023/01/19 05:50:22;;;;;;;1.40;0.50;;;;;;;;;;4937845;28;20051;-75
2023/01/19 05:52:48;;;;;;;0.50;0.50;;;;;;;;;;4934714;28;20054;-73
2023/01/19 05:55:15;;;;;;;2.28;0.50;;;;;;;;;;4939229;28;20047;-74
2023/01/19 05:57:42;;;;;;;0.70;0.50;;;;;;;;;;4932579;28;20113;-74
2023/01/19 06:00:08;;;;;;;0.40;0.30;;;;;;;;;;4939440;28;22490;-72
2023/01/19 06:02:34;;;;;;;8.75;0.63;;;;;;;;;;4932457;28;20429;-75
2023/01/19 06:05:00;;;;;;;1.05;0.40;;;;;;;;;;4939089;28;20484;-73
2023/01/19 06:07:26;;;;;;;1.20;0.50;;;;;;;;;;4939294;28;20054;-71
2023/01/19 06:09:52;;;;;;;0.40;0.40;;;;;;;;;;4938962;28;20047;-73
2023/01/19 06:12:18;;;;;;;0.85;0.45;;;;;;;;;;4936252;28;20069;-76
2023/01/19 06:14:44;;;;;;;1.55;0.60;;;;;;;;;;4939271;28;20040;-73
2023/01/19 06:17:10;;;;;;;0.60;0.60;;;;;;;;;;4933856;28;20393;-74
2023/01/19 06:19:36;;;;;;;0.70;0.60;;;;;;;;;;4935325;28;20054;-72
2023/01/19 06:22:02;;;;;;;4.35;1.13;;;;;;;;;;4935570;28;20066;-71
2023/01/19 06:24:28;;;;;;;0.63;0.50;;;;;;;;;;4934267;28;20131;-72
2023/01/19 06:26:54;;;;;;;1.65;0.68;;;;;;;;;;4933756;28;20059;-74
2023/01/19 06:29:21;;;;;;;3.25;1.08;;;;;;;;;;4939933;28;20051;-71
2023/01/19 06:31:47;;;;;;;0.85;0.50;;;;;;;;;;4938240;28;20047;-73
2023/01/19 06:34:12;;;;;;;2.05;0.82;;;;;;;;;;4938674;28;20102;-72
2023/01/19 06:36:38;;;;;;;3.38;0.70;;;;;;;;;;4941543;28;20047;-73
2023/01/19 06:39:04;;;;;;;4.35;0.60;;;;;;;;;;4938592;28;20044;-72
2023/01/19 06:41:34;;;;;;;1.33;0.63;;;;;;;;;;4943643;28;20058;-72
2023/01/19 06:44:01;;;;;;;1.95;0.75;;;;;;;;;;4935670;28;20059;-72
2023/01/19 06:46:27;;;;;;;5.90;0.73;;;;;;;;;;4930879;28;20254;-72
2023/01/19 06:48:54;;;;;;;2.05;0.70;;;;;;;;;;4935920;28;20054;-76
2023/01/19 06:51:20;;;;;;;1.60;0.60;;;;;;;;;;4942393;28;20051;-80
2023/01/19 06:53:46;;;;;;;2.22;1.00;;;;;;;;;;4936807;28;20502;-74
2023/01/19 06:56:12;;;;;;;14.68;0.98;;;;;;;;;;4933983;28;20063;-75
2023/01/19 06:58:38;;;;;;;2.60;0.90;;;;;;;;;;4934458;28;20401;-74
2023/01/19 07:01:05;;;;;;;1.30;1.00;;;;;;;;;;4936627;28;20036;-74
2023/01/19 07:03:32;;;;;;;2.20;1.20;;;;;;;;;;4936926;28;20050;-74
2023/01/19 07:06:01;;;;;;;1.65;1.20;;;;;;;;;;4937326;28;20055;-75
2023/01/19 07:08:28;;;;;;;4.18;1.20;;;;;;;;;;4934339;28;20745;-80
2023/01/19 07:11:05;;;;;;;1.90;1.23;;;;;;;;;;4934070;28;20464;-76
2023/01/19 07:13:32;;;;;;;2.95;0.90;;;;;;;;;;4937925;28;20059;-73
2023/01/19 07:16:02;;;;;;;2.50;0.90;;;;;;;;;;4942185;28;20055;-74
2023/01/19 07:18:28;;;;;;;1.67;1.00;;;;;;;;;;4934841;28;20114;-74
2023/01/19 07:20:59;;;;;;;1.30;0.90;;;;;;;;;;4935584;28;20059;-76
2023/01/19 07:23:29;;;;;;;2.13;1.13;;;;;;;;;;4935625;28;20059;-75
2023/01/19 07:25:59;;;;;;;2.80;1.40;;;;;;;;;;4934228;28;20050;-79
2023/01/19 07:28:25;;;;;;;5.20;1.98;;;;;;;;;;4939613;28;20035;-78
2023/01/19 07:30:52;;;;;;;5.45;2.00;;;;;;;;;;4934121;28;20055;-75
2023/01/19 07:33:20;;;;;;;3.08;1.60;;;;;;;;;;4937569;28;20055;-75
2023/01/19 07:35:48;;;;;;;1.50;1.05;;;;;;;;;;4938393;28;20130;-76
2023/01/19 07:38:15;;;;;;;4.03;1.30;;;;;;;;;;4936544;28;20150;-75
2023/01/19 07:40:41;;;;;;;3.65;0.95;;;;;;;;;;4937965;28;20055;-76
2023/01/19 07:43:07;;;;;;;3.63;1.63;;;;;;;;;;4933096;28;20111;-70
2023/01/19 07:45:34;;;;;;;3.80;1.50;;;;;;;;;;4937371;28;20051;-75
2023/01/19 07:48:00;;;;;;;5.10;1.48;;;;;;;;;;4940918;28;20051;-75
2023/01/19 07:50:28;;;;;;;2.42;1.33;;;;;;;;;;4941576;28;20075;-78
2023/01/19 07:52:54;;;;;;;3.03;1.08;;;;;;;;;;4943257;28;20381;-76
2023/01/19 07:55:22;;;;;;;2.83;1.42;;;;;;;;;;4939352;28;20047;-75
2023/01/19 07:57:51;;;;;;;4.47;1.10;;;;;;;;;;4941865;28;20147;-74
2023/01/19 08:00:20;;;;;;;3.30;1.27;;;;;;;;;;4941110;28;20126;-76
2023/01/19 08:02:50;;;;;;;1.63;0.98;;;;;;;;;;4934475;28;20127;-78
2023/01/19 08:05:17;;;;;;;2.45;1.05;;;;;;;;;;4933913;28;20531;-79
2023/01/19 08:07:45;;;;;;;2.75;1.52;;;;;;;;;;4934461;28;20062;-74
2023/01/19 08:10:13;;;;;;;3.95;1.60;;;;;;;;;;4939941;28;20055;-75
2023/01/19 08:12:40;;;;;;;6.70;1.83;;;;;;;;;;4936994;28;20048;-75
2023/01/19 08:15:10;;;;;;;4.97;2.17;;;;;;;;;;4939515;28;20544;-75
2023/01/19 08:17:36;;;;;;;4.18;1.95;;;;;;;;;;4941268;28;20044;-76
2023/01/19 08:20:03;;;;;;;4.15;1.65;;;;;;;;;;4939918;28;20047;-76
2023/01/19 08:22:30;;;;;;;6.00;1.95;;;;;;;;;;4941233;28;20047;-74
2023/01/19 08:24:56;;;;;;;3.22;1.77;;;;;;;;;;4935067;28;20055;-74
2023/01/19 08:27:22;;;;;;;5.93;2.28;;;;;;;;;;4942295;28;20461;-74
2023/01/19 08:29:48;;;;;;;4.18;1.77;;;;;;;;;;4936231;28;20632;-75
2023/01/19 08:32:14;;;;;;;4.82;1.70;;;;;;;;;;4940302;28;20047;-73
2023/01/19 08:34:40;;;;;;;2.60;1.20;;;;;;;;;;4934748;28;20378;-73
2023/01/19 08:37:06;;;;;;;2.70;1.20;;;;;;;;;;4938366;28;20051;-75
2023/01/19 08:39:32;;;;;;;5.07;1.52;;;;;;;;;;4936243;28;20165;-74
2023/01/19 08:41:59;;;;;;;6.00;2.25;;;;;;;;;;4935393;28;20051;-78
2023/01/19 08:44:26;;;;;;;4.68;2.05;;;;;;;;;;4941895;28;20046;-76
2023/01/19 08:46:52;;;;;;;5.93;1.92;;;;;;;;;;4952565;28;20513;-75
2023/01/19 08:49:18;;;;;;;4.47;1.50;;;;;;;;;;4938951;28;20039;-77
2023/01/19 08:51:45;;;;;;;4.85;1.98;;;;;;;;;;4942171;28;20142;-75
2023/01/19 08:54:12;;;;;;;2.78;1.65;;;;;;;;;;4941470;28;20050;-77
2023/01/19 08:56:38;;;;;;;6.90;2.03;;;;;;;;;;4935316;28;20082;-75
2023/01/19 08:59:04;;;;;;;7.68;2.60;;;;;;;;;;4939436;28;20056;-76
2023/01/19 09:01:30;;;;;;;6.63;2.35;;;;;;;;;;4941073;28;20069;-74
2023/01/19 09:03:56;;;;;;;6.20;1.88;;;;;;;;;;4941400;28;20158;-75
2023/01/19 09:06:24;;;;;;;4.07;1.75;;;;;;;;;;4938528;28;20054;-76
2023/01/19 09:08:50;;;;;;;3.78;1.52;;;;;;;;;;4937856;28;20281;-75
2023/01/19 09:11:16;;;;;;;5.13;1.23;;;;;;;;;;4948709;28;20098;-75
2023/01/19 09:13:42;;;;;;;4.78;1.00;;;;;;;;;;4944182;28;20047;-73
2023/01/19 09:16:10;;;;;;;5.82;1.08;;;;;;;;;;4945818;28;20046;-70
2023/01/19 09:18:36;;;;;;;3.35;1.20;;;;;;;;;;4946423;28;20382;-72
2023/01/19 09:21:02;;;;;;;2.08;0.80;;;;;;;;;;4939315;28;20055;-74
2023/01/19 09:23:29;;;;;;;1.70;1.00;;;;;;;;;;4945915;28;20055;-73
2023/01/19 09:26:00;;;;;;;2.70;1.00;;;;;;;;;;4948588;28;20407;-72
2023/01/19 09:28:28;;;;;;;3.88;0.80;;;;;;;;;;4939414;28;20050;-73
2023/01/19 09:30:54;;;;;;;0.80;0.80;;;;;;;;;;4945244;28;20118;-80
2023/01/19 09:33:20;;;;;;;1.58;0.88;;;;;;;;;;4934490;28;20052;-71
2023/01/19 09:35:47;;;;;;;5.07;1.17;;;;;;;;;;4943814;28;20335;-75
2023/01/19 09:38:15;;;;;;;1.88;1.08;;;;;;;;;;4935870;28;20063;-69
2023/01/19 09:40:50;;;;;;;2.45;1.30;;;;;;;;;;4947869;28;20047;-73
2023/01/19 09:43:35;;;;;;;2.42;1.30;;;;;;;;;;4942786;28;20051;-75
2023/01/19 09:46:10;;;;;;;1.67;1.17;;;;;;;;;;4944951;28;22746;-76
2023/01/19 09:48:46;;;;;;;2.55;1.45;;;;;;;;;;4943200;28;20063;-73
2023/01/19 09:51:22;;;;;;;3.60;1.58;;;;;;;;;;4934758;28;20135;-71
2023/01/19 09:54:00;;;;;;;3.00;1.25;;;;;;;;;;4941928;28;20338;-70
2023/01/19 09:56:28;;;;;;;1.95;1.27;;;;;;;;;;4939626;28;20051;-73
2023/01/19 09:58:54;;;;;;;6.10;1.00;;;;;;;;;;4946212;28;20145;-75
2023/01/19 10:01:49;;;;;;;2.33;0.93;;;;;;;;;;4946108;28;20456;-68
2023/01/19 10:04:40;;;;;;;2.30;1.10;;;;;;;;;;4945560;29;20074;-68
2023/01/19 10:07:21;;;;;;;4.07;0.90;;;;;;;;;;4939432;28;20040;-73
2023/01/19 10:10:15;;;;;;;1.50;0.90;;;;;;;;;;4945770;28;20497;-71
2023/01/19 10:13:10;;;;;;;1.27;0.80;;;;;;;;;;4945600;28;20067;-70
2023/01/19 10:16:06;;;;;;;0.98;0.80;;;;;;;;;;4942993;28;20047;-73
2023/01/19 10:18:42;;;;;;;5.15;1.00;;;;;;;;;;4941486;28;20071;-70
2023/01/19 10:21:13;;;;;;;5.88;1.10;;;;;;;;;;4938054;28;20535;-70
2023/01/19 10:24:08;;;;;;;3.47;0.90;;;;;;;;;;4936245;28;20119;-70
2023/01/19 10:27:01;;;;;;;4.28;1.15;;;;;;;;;;4937755;29;20075;-68
2023/01/19 10:29:36;;;;;;;7.85;1.30;;;;;;;;;;4943746;28;20039;-72
2023/01/19 10:32:25;;;;;;;2.05;1.20;;;;;;;;;;4944703;28;20058;-71
2023/01/19 10:34:52;;;;;;;2.75;1.20;;;;;;;;;;4941497;28;20095;-70
2023/01/19 10:37:31;;;;;;;2.08;1.20;;;;;;;;;;4946288;28;20059;-73
2023/01/19 10:40:09;;;;;;;8.10;1.40;;;;;;;;;;4943877;28;20698;-71
2023/01/19 10:42:37;;;;;;;1.90;0.90;;;;;;;;;;4940432;28;20059;-76
2023/01/19 10:45:20;;;;;;;3.13;1.50;;;;;;;;;;4943189;28;20043;-70
2023/01/19 10:47:48;;;;;;;2.95;1.35;;;;;;;;;;4935358;28;20078;-75
2023/01/19 10:50:38;;;;;;;4.53;1.70;;;;;;;;;;4944480;28;20056;-77
2023/01/19 10:53:16;;;;;;;2.38;1.20;;;;;;;;;;4933920;28;20069;-69
2023/01/19 10:55:43;;;;;;;8.35;1.30;;;;;;;;;;4942083;28;20293;-73
2023/01/19 10:58:28;;;;;;;3.40;1.00;;;;;;;;;;4939883;28;20055;-73
2023/01/19 11:00:53;;;;;;;3.33;0.65;;;;;;;;;;4939829;28;20088;-74
2023/01/19 11:03:31;;;;;;;1.05;0.77;;;;;;;;;;4935211;28;20056;-74
2023/01/19 11:06:14;;;;;;;3.65;1.00;;;;;;;;;;4941319;28;20500;-67
2023/01/19 11:08:42;;;;;;;1.85;0.80;;;;;;;;;;4939709;28;20058;-70
2023/01/19 11:11:11;;;;;;;3.10;0.90;;;;;;;;;;4945869;28;20408;-78
2023/01/19 11:13:38;;;;;;;2.47;0.95;;;;;;;;;;4944755;28;20062;-74
2023/01/19 11:16:11;;;;;;;3.75;0.90;;;;;;;;;;4937860;28;20062;-76
2023/01/19 11:18:39;;;;;;;1.73;0.77;;;;;;;;;;4937494;28;20043;-74
2023/01/19 11:21:08;;;;;;;3.90;1.30;;;;;;;;;;4933437;28;20047;-70
2023/01/19 11:23:54;;;;;;;3.33;1.45;;;;;;;;;;4942261;28;20110;-69
2023/01/19 11:26:39;;;;;;;3.40;1.20;;;;;;;;;;4945580;28;20117;-73
2023/01/19 11:29:21;;;;;;;3.17;1.20;;;;;;;;;;4933556;28;20054;-70
2023/01/19 11:31:48;;;;;;;4.53;1.20;;;;;;;;;;4941552;28;20537;-69
2023/01/19 11:34:33;;;;;;;1.55;0.80;;;;;;;;;;4933194;28;20055;-70
2023/01/19 11:37:04;;;;;;;3.15;1.60;;;;;;;;;;4947583;28;20051;-71
2023/01/19 11:39:43;;;;;;;1.58;0.90;;;;;;;;;;4941474;28;20110;-72
2023/01/19 11:42:14;;;;;;;5.45;1.02;;;;;;;;;;4947243;28;20059;-71
2023/01/19 11:45:05;;;;;;;3.05;1.42;;;;;;;;;;4939988;28;20126;-72
2023/01/19 11:47:44;;;;;;;1.73;0.98;;;;;;;;;;4941327;28;20062;-75
2023/01/19 11:50:30;;;;;;;8.02;1.20;;;;;;;;;;4936351;28;20051;-75
2023/01/19 11:53:23;;;;;;;2.67;1.20;;;;;;;;;;4943742;28;20047;-71
2023/01/19 11:56:00;;;;;;;2.72;0.80;;;;;;;;;;4944464;28;20051;-72
2023/01/19 11:58:26;;;;;;;1.70;0.70;;;;;;;;;;4938797;28;20133;-77
2023/01/19 12:01:05;;;;;;;1.55;0.63;;;;;;;;;;4944520;28;20378;-75
2023/01/19 12:03:41;;;;;;;3.75;1.20;;;;;;;;;;4944005;28;20084;-71
2023/01/19 12:06:22;;;;;;;3.33;0.82;;;;;;;;;;4943268;28;20197;-70
2023/01/19 12:09:03;;;;;;;4.40;0.82;;;;;;;;;;4937566;28;20043;-69
2023/01/19 12:11:37;;;;;;;2.25;0.88;;;;;;;;;;4942301;28;20507;-67
2023/01/19 12:14:06;;;;;;;1.45;0.88;;;;;;;;;;4942356;28;20096;-68
2023/01/19 12:16:36;;;;;;;2.65;1.35;;;;;;;;;;4937780;28;20044;-69
2023/01/19 12:19:35;;;;;;;1.52;1.00;;;;;;;;;;4937109;28;20043;-68
2023/01/19 12:22:03;;;;;;;7.90;0.80;;;;;;;;;;4940060;28;20580;-76
2023/01/19 12:24:40;;;;;;;2.08;0.95;;;;;;;;;;4942591;28;20142;-78
2023/01/19 12:27:43;;;;;;;2.65;1.10;;;;;;;;;;4933675;29;20043;-72
2023/01/19 12:30:21;;;;;;;3.25;0.90;;;;;;;;;;4933435;28;20055;-71
2023/01/19 12:32:50;;;;;;;1.75;0.93;;;;;;;;;;4945641;28;20198;-73
2023/01/19 12:35:53;;;;;;;3.28;1.20;;;;;;;;;;4946778;28;20047;-72
2023/01/19 12:38:34;;;;;;;1.73;0.88;;;;;;;;;;4947730;28;20073;-81
2023/01/19 12:41:20;;;;;;;2.28;1.25;;;;;;;;;;4943419;29;20122;-74
2023/01/19 12:43:47;;;;;;;5.78;1.10;;;;;;;;;;4942604;28;20154;-71
2023/01/19 12:46:25;;;;;;;1.85;1.00;;;;;;;;;;4940924;28;20130;-74
2023/01/19 12:48:52;;;;;;;2.20;0.90;;;;;;;;;;4938474;28;20055;-81
2023/01/19 12:51:25;;;;;;;4.28;1.02;;;;;;;;;;4938954;28;20137;-76
2023/01/19 12:53:56;;;;;;;3.88;1.08;;;;;;;;;;4942838;28;20536;-73
2023/01/19 12:56:32;;;;;;;1.48;0.85;;;;;;;;;;4942963;28;20047;-72
2023/01/19 12:58:59;;;;;;;2.88;1.05;;;;;;;;;;4942125;28;20092;-74
2023/01/19 13:01:25;;;;;;;1.20;0.70;;;;;;;;;;4945368;28;20051;-80
2023/01/19 13:04:25;;;;;;;1.85;1.02;;;;;;;;;;4940370;28;20062;-77
2023/01/19 13:06:51;;;;;;;2.03;0.93;;;;;;;;;;4940665;28;20075;-77
2023/01/19 13:09:31;;;;;;;3.67;1.00;;;;;;;;;;4939746;28;20051;-78
2023/01/19 13:12:29;;;;;;;2.95;1.35;;;;;;;;;;4942900;28;20047;-72
2023/01/19 13:15:34;;;;;;;1.88;1.02;;;;;;;;;;4929045;28;20052;-76
2023/01/19 13:18:00;;;;;;;2.85;1.02;;;;;;;;;;4940288;28;20062;-71
2023/01/19 13:20:35;;;;;;;2.22;0.88;;;;;;;;;;4941145;28;20261;-75
2023/01/19 13:23:20;;;;;;;3.10;1.00;;;;;;;;;;4940162;28;20110;-73
2023/01/19 13:25:50;;;;;;;1.83;0.90;;;;;;;;;;4940735;28;20071;-70
2023/01/19 13:28:18;;;;;;;3.15;1.15;;;;;;;;;;4943897;28;20445;-71
2023/01/19 13:30:54;;;;;;;2.00;0.70;;;;;;;;;;4941504;28;20067;-75
2023/01/19 13:33:23;;;;;;;1.08;0.82;;;;;;;;;;4942597;28;20047;-74
2023/01/19 13:35:57;;;;;;;2.60;1.20;;;;;;;;;;4944965;28;20070;-73
2023/01/19 13:38:25;;;;;;;2.15;0.80;;;;;;;;;;4944813;28;20075;-79
2023/01/19 13:40:53;;;;;;;2.85;1.10;;;;;;;;;;4940593;28;20273;-72
2023/01/19 13:43:28;;;;;;;3.60;0.95;;;;;;;;;;4938428;28;20143;-71
2023/01/19 13:45:54;;;;;;;1.63;0.80;;;;;;;;;;4946125;28;20058;-70
2023/01/19 13:48:22;;;;;;;2.63;1.05;;;;;;;;;;4945228;28;20055;-71
2023/01/19 13:51:05;;;;;;;0.70;0.60;;;;;;;;;;4945042;28;20058;-76
2023/01/19 13:53:32;;;;;;;2.67;0.82;;;;;;;;;;4947870;28;20063;-77
2023/01/19 13:56:05;;;;;;;0.70;0.55;;;;;;;;;;4942915;28;20059;-72
2023/01/19 13:58:31;;;;;;;6.65;0.98;;;;;;;;;;4944645;28;20138;-78
2023/01/19 14:00:57;;;;;;;2.65;0.90;;;;;;;;;;4938252;28;20052;-75
2023/01/19 14:03:25;;;;;;;1.15;0.68;;;;;;;;;;4939680;28;20378;-78
2023/01/19 14:05:53;;;;;;;1.30;0.80;;;;;;;;;;4941888;28;20139;-69
2023/01/19 14:08:21;;;;;;;1.23;0.80;;;;;;;;;;4938621;28;20048;-74
2023/01/19 14:10:55;;;;;;;2.85;1.00;;;;;;;;;;4938111;28;20047;-74
2023/01/19 14:13:24;;;;;;;0.90;0.60;;;;;;;;;;4941252;28;20216;-76
2023/01/19 14:15:54;;;;;;;3.58;0.75;;;;;;;;;;4938847;28;20047;-74
2023/01/19 14:18:19;;;;;;;3.47;0.90;;;;;;;;;;4941063;28;20047;-79
2023/01/19 14:21:08;;;;;;;3.97;0.95;;;;;;;;;;4935658;28;20591;-76
2023/01/19 14:23:41;;;;;;;1.25;0.80;;;;;;;;;;4940151;28;20144;-75
2023/01/19 14:26:45;;;;;;;1.95;0.90;;;;;;;;;;4939731;28;20074;-70
2023/01/19 14:29:20;;;;;;;6.80;1.20;;;;;;;;;;4935616;28;20063;-74
2023/01/19 14:31:49;;;;;;;2.83;1.10;;;;;;;;;;4938449;28;20096;-73
2023/01/19 14:34:40;;;;;;;2.60;0.80;;;;;;;;;;4944545;28;20421;-78
2023/01/19 14:37:26;;;;;;;2.78;1.00;;;;;;;;;;4941765;28;20071;-77
2023/01/19 14:40:07;;;;;;;1.98;0.77;;;;;;;;;;4938966;28;20725;-71
2023/01/19 14:42:42;;;;;;;4.30;1.25;;;;;;;;;;4944504;28;20055;-73
2023/01/19 14:45:21;;;;;;;1.75;1.23;;;;;;;;;;4936339;28;20154;-73
2023/01/19 14:48:02;;;;;;;1.50;0.70;;;;;;;;;;4938367;28;20050;-80
2023/01/19 14:50:38;;;;;;;1.42;0.80;;;;;;;;;;4937700;28;20048;-72
2023/01/19 14:53:16;;;;;;;4.20;1.05;;;;;;;;;;4942143;28;20531;-78
2023/01/19 14:55:54;;;;;;;3.58;1.00;;;;;;;;;;4938697;28;20050;-72
2023/01/19 14:58:23;;;;;;;2.30;0.70;;;;;;;;;;4939458;28;20050;-77
2023/01/19 15:00:49;;;;;;;2.55;0.70;;;;;;;;;;4940714;28;20059;-77
2023/01/19 15:03:15;;;;;;;1.17;0.70;;;;;;;;;;4936850;28;20056;-77
2023/01/19 15:05:43;;;;;;;3.05;0.88;;;;;;;;;;4938332;28;20047;-79
2023/01/19 15:08:30;;;;;;;2.22;0.60;;;;;;;;;;4940656;28;20055;-74
2023/01/19 15:10:56;;;;;;;2.40;0.90;;;;;;;;;;4939091;28;20184;-73
2023/01/19 15:13:25;;;;;;;2.30;1.13;;;;;;;;;;4937850;28;20576;-78
2023/01/19 15:15:52;;;;;;;2.65;1.00;;;;;;;;;;4935175;28;20062;-74